createdAt,value
2022-08-30T00:00:40.815Z,20.52
2022-08-30T00:03:12.345Z,20.53
2022-08-30T00:05:40.583Z,20.48
2022-08-30T00:08:08.834Z,20.45
2022-08-30T00:10:36.817Z,20.32
2022-08-30T00:13:06.617Z,20.19
2022-08-30T00:15:35.298Z,20.09
2022-08-30T00:18:03.214Z,20.03
2022-08-30T00:20:34.806Z,20.04
2022-08-30T00:23:03.589Z,19.97
2022-08-30T00:25:31.782Z,19.99
2022-08-30T00:27:59.667Z,19.91
2022-08-30T00:30:27.882Z,19.86
2022-08-30T00:32:55.725Z,19.82
2022-08-30T00:35:24.231Z,19.81
2022-08-30T00:37:53.587Z,19.80
2022-08-30T00:40:27.371Z,19.83
2022-08-30T00:42:59.250Z,19.87
2022-08-30T00:45:30.790Z,19.87
2022-08-30T00:47:58.882Z,19.78
2022-08-30T00:50:30.209Z,19.73
2022-08-30T00:53:02.021Z,19.79
2022-08-30T00:55:30.850Z,19.75
2022-08-30T00:58:02.333Z,19.75
2022-08-30T01:00:32.317Z,19.74
2022-08-30T01:03:00.325Z,19.64
2022-08-30T01:05:28.998Z,19.64
2022-08-30T01:07:57.361Z,19.64
2022-08-30T01:10:26.632Z,19.62
2022-08-30T01:12:54.534Z,19.60
2022-08-30T01:15:22.614Z,19.64
2022-08-30T01:17:51.097Z,19.59
2022-08-30T01:20:22.817Z,19.62
2022-08-30T01:23:13.536Z,19.59
2022-08-30T01:25:43.345Z,19.55
2022-08-30T01:28:13.474Z,19.57
2022-08-30T01:30:43.175Z,19.57
2022-08-30T01:33:12.875Z,19.55
2022-08-30T01:35:53.895Z,19.53
2022-08-30T01:38:25.475Z,19.52
2022-08-30T01:40:59.319Z,19.51
2022-08-30T01:43:27.713Z,19.52
2022-08-30T01:45:55.717Z,19.53
2022-08-30T01:48:30.945Z,19.44
2022-08-30T01:50:59.824Z,19.36
2022-08-30T01:53:29.551Z,19.34
2022-08-30T01:55:57.616Z,19.33
2022-08-30T01:58:25.704Z,19.31
2022-08-30T02:00:53.628Z,19.25
2022-08-30T02:03:21.662Z,19.23
2022-08-30T02:05:49.876Z,19.20
2022-08-30T02:08:18.070Z,19.16
2022-08-30T02:10:47.426Z,19.06
2022-08-30T02:13:15.730Z,18.95
2022-08-30T02:15:43.757Z,18.77
2022-08-30T02:18:11.874Z,18.63
2022-08-30T02:20:40.919Z,18.56
2022-08-30T02:23:08.881Z,18.57
2022-08-30T02:25:36.725Z,18.54
2022-08-30T02:28:06.501Z,18.51
2022-08-30T02:30:34.613Z,18.43
2022-08-30T02:33:02.676Z,18.39
2022-08-30T02:35:31.209Z,18.47
2022-08-30T02:37:59.145Z,18.49
2022-08-30T02:40:27.078Z,18.51
2022-08-30T02:42:58.772Z,18.50
2022-08-30T02:45:28.941Z,18.51
2022-08-30T02:47:57.014Z,18.52
2022-08-30T02:50:25.729Z,18.56
2022-08-30T02:52:54.450Z,18.57
2022-08-30T02:55:24.213Z,18.55
2022-08-30T02:57:52.228Z,18.56
2022-08-30T03:00:22.196Z,18.53
2022-08-30T03:02:51.450Z,18.53
2022-08-30T03:05:19.872Z,18.53
2022-08-30T03:07:48.583Z,18.46
2022-08-30T03:10:17.521Z,18.46
2022-08-30T03:12:47.950Z,18.38
2022-08-30T03:15:16.687Z,18.21
2022-08-30T03:17:44.557Z,18.13
2022-08-30T03:20:14.286Z,18.04
2022-08-30T03:22:42.285Z,18.02
2022-08-30T03:25:10.999Z,18.05
2022-08-30T03:27:38.896Z,18.11
2022-08-30T03:30:08.710Z,18.16
2022-08-30T03:32:37.095Z,18.21
2022-08-30T03:35:05.969Z,18.24
2022-08-30T03:37:35.385Z,18.32
2022-08-30T03:40:04.435Z,18.30
2022-08-30T03:42:34.199Z,18.30
2022-08-30T03:45:03.108Z,18.32
2022-08-30T03:47:30.990Z,18.32
2022-08-30T03:49:58.881Z,18.28
2022-08-30T03:52:27.974Z,18.25
2022-08-30T03:54:57.530Z,18.29
2022-08-30T03:57:25.780Z,18.26
2022-08-30T03:59:53.717Z,18.25
2022-08-30T04:02:22.131Z,18.25
2022-08-30T04:04:51.051Z,18.24
2022-08-30T04:07:19.362Z,18.23
2022-08-30T04:09:47.418Z,18.22
2022-08-30T04:12:18.409Z,18.20
2022-08-30T04:14:51.055Z,18.21
2022-08-30T04:17:18.946Z,18.15
2022-08-30T04:19:46.894Z,18.13
2022-08-30T04:22:14.717Z,18.06
2022-08-30T04:24:42.718Z,17.99
2022-08-30T04:27:11.124Z,17.96
2022-08-30T04:29:40.505Z,17.94
2022-08-30T04:32:08.652Z,17.91
2022-08-30T04:34:36.971Z,17.92
2022-08-30T04:37:04.929Z,17.93
2022-08-30T04:39:33.291Z,17.94
2022-08-30T04:42:01.494Z,17.89
2022-08-30T04:44:29.496Z,17.86
2022-08-30T04:46:59.053Z,17.72
2022-08-30T04:49:27.007Z,17.55
2022-08-30T04:51:55.814Z,17.47
2022-08-30T04:54:24.059Z,17.46
2022-08-30T04:56:51.910Z,17.44
2022-08-30T04:59:19.752Z,17.41
2022-08-30T05:01:48.300Z,17.24
2022-08-30T05:04:17.661Z,17.16
2022-08-30T05:06:45.571Z,17.18
2022-08-30T05:09:13.492Z,17.16
2022-08-30T05:11:43.280Z,17.20
2022-08-30T05:14:11.798Z,17.29
2022-08-30T05:16:40.168Z,17.36
2022-08-30T05:19:08.429Z,17.47
2022-08-30T05:21:40.720Z,17.53
2022-08-30T05:24:09.423Z,17.59
2022-08-30T05:26:39.189Z,17.62
2022-08-30T05:29:07.229Z,17.64
2022-08-30T05:31:37.485Z,17.77
2022-08-30T05:34:08.386Z,17.62
2022-08-30T05:36:40.680Z,17.61
2022-08-30T05:39:10.657Z,17.52
2022-08-30T05:41:39.832Z,17.57
2022-08-30T05:44:09.973Z,17.67
2022-08-30T05:46:39.858Z,17.72
2022-08-30T05:49:11.120Z,17.77
2022-08-30T05:51:43.575Z,17.65
2022-08-30T05:54:12.329Z,17.65
2022-08-30T05:56:41.619Z,17.68
2022-08-30T05:59:10.387Z,17.76
2022-08-30T06:01:41.222Z,17.84
2022-08-30T06:04:12.014Z,17.92
2022-08-30T06:06:43.565Z,17.95
2022-08-30T06:09:13.429Z,18.05
2022-08-30T06:11:43.773Z,18.02
2022-08-30T06:14:12.031Z,18.05
2022-08-30T06:16:41.318Z,18.13
2022-08-30T06:19:11.243Z,18.21
2022-08-30T06:21:41.974Z,18.31
2022-08-30T06:24:11.854Z,18.36
2022-08-30T06:26:42.062Z,18.42
2022-08-30T06:29:10.987Z,18.53
2022-08-30T06:31:39.633Z,18.56
2022-08-30T06:34:08.299Z,18.63
2022-08-30T06:36:36.764Z,18.69
2022-08-30T06:39:06.987Z,18.81
2022-08-30T06:41:37.001Z,18.91
2022-08-30T06:44:06.562Z,19.00
2022-08-30T06:46:36.907Z,19.17
2022-08-30T06:49:06.343Z,19.32
2022-08-30T06:51:36.195Z,19.45
2022-08-30T06:54:10.641Z,19.58
2022-08-30T06:56:48.724Z,19.69
2022-08-30T06:59:25.814Z,19.86
2022-08-30T07:01:55.367Z,19.97
2022-08-30T07:04:23.612Z,20.17
2022-08-30T07:06:51.881Z,20.32
2022-08-30T07:09:22.864Z,20.46
2022-08-30T07:11:52.020Z,20.57
2022-08-30T07:14:20.154Z,20.73
2022-08-30T07:16:51.066Z,20.86
2022-08-30T07:19:20.572Z,20.98
2022-08-30T07:21:51.038Z,21.19
2022-08-30T07:24:19.466Z,21.43
2022-08-30T07:26:52.328Z,21.62
2022-08-30T07:29:21.452Z,21.74
2022-08-30T07:31:52.565Z,21.75
2022-08-30T07:34:22.437Z,21.95
2022-08-30T07:36:53.089Z,22.07
2022-08-30T07:39:21.800Z,22.27
2022-08-30T07:41:52.197Z,22.39
2022-08-30T07:44:20.538Z,22.62
2022-08-30T07:46:51.375Z,22.72
2022-08-30T07:49:20.132Z,22.81
2022-08-30T07:51:49.157Z,23.02
2022-08-30T07:54:17.273Z,23.14
2022-08-30T07:56:45.458Z,23.40
2022-08-30T07:59:15.156Z,23.48
2022-08-30T08:01:43.522Z,23.62
2022-08-30T08:04:12.390Z,23.59
2022-08-30T08:06:41.235Z,23.69
2022-08-30T08:09:11.263Z,23.86
2022-08-30T08:11:40.769Z,24.02
2022-08-30T08:14:09.247Z,24.26
2022-08-30T08:16:39.368Z,24.51
2022-08-30T08:19:09.441Z,24.75
2022-08-30T08:21:38.598Z,24.97
2022-08-30T08:24:06.855Z,25.13
2022-08-30T08:26:35.799Z,25.24
2022-08-30T08:29:04.071Z,25.48
2022-08-30T08:31:33.398Z,25.60
2022-08-30T08:34:06.766Z,25.73
2022-08-30T08:36:37.293Z,25.94
2022-08-30T08:39:12.329Z,26.02
2022-08-30T08:41:52.445Z,26.07
2022-08-30T08:44:34.287Z,26.27
2022-08-30T08:47:23.068Z,26.34
2022-08-30T08:50:04.597Z,26.48
2022-08-30T08:53:01.087Z,26.48
2022-08-30T08:55:30.645Z,26.67
2022-08-30T08:57:59.360Z,26.82
2022-08-30T09:00:27.555Z,26.79
2022-08-30T09:02:59.897Z,26.98
2022-08-30T09:05:36.780Z,27.06
2022-08-30T09:08:11.012Z,27.19
2022-08-30T09:10:50.759Z,27.20
2022-08-30T09:13:30.428Z,27.25
2022-08-30T09:16:06.543Z,27.30
2022-08-30T09:18:45.542Z,27.39
2022-08-30T09:21:24.777Z,27.43
2022-08-30T09:23:59.159Z,27.64
2022-08-30T09:26:32.048Z,27.66
2022-08-30T09:32:16.147Z,27.78
2022-08-30T09:34:44.908Z,27.64
2022-08-30T09:37:30.299Z,27.96
2022-08-30T09:40:01.305Z,28.06
2022-08-30T09:42:31.290Z,28.23
2022-08-30T09:45:11.918Z,28.35
2022-08-30T09:47:41.770Z,28.39
2022-08-30T09:50:12.230Z,28.39
2022-08-30T09:53:01.737Z,28.38
2022-08-30T09:55:48.083Z,28.45
2022-08-30T09:58:25.709Z,28.52
2022-08-30T10:01:04.845Z,28.67
2022-08-30T10:03:40.569Z,28.69
2022-08-30T10:06:22.016Z,28.75
2022-08-30T10:09:00.851Z,28.79
2022-08-30T10:11:41.489Z,28.93
2022-08-30T10:14:45.425Z,28.91
2022-08-30T10:17:19.462Z,28.92
2022-08-30T10:20:03.782Z,28.79
2022-08-30T10:22:35.727Z,28.94
2022-08-30T10:25:16.156Z,28.90
2022-08-30T10:27:48.686Z,28.94
2022-08-30T10:30:18.193Z,28.95
2022-08-30T10:32:51.069Z,28.76
2022-08-30T10:35:21.918Z,28.87
2022-08-30T10:37:52.488Z,28.97
2022-08-30T10:40:43.838Z,29.11
2022-08-30T10:43:18.644Z,29.17
2022-08-30T10:45:48.647Z,29.17
2022-08-30T10:48:20.599Z,29.15
2022-08-30T10:50:53.667Z,29.39
2022-08-30T10:53:27.574Z,29.55
2022-08-30T10:56:02.603Z,29.58
2022-08-30T10:58:32.883Z,29.80
2022-08-30T11:01:12.840Z,29.92
2022-08-30T11:04:25.015Z,29.94
2022-08-30T11:06:59.664Z,29.56
2022-08-30T11:09:42.719Z,29.36
2022-08-30T11:12:26.608Z,29.43
2022-08-30T11:14:55.260Z,29.73
2022-08-30T11:17:27.345Z,29.69
2022-08-30T11:19:59.782Z,29.61
2022-08-30T11:22:30.170Z,29.58
2022-08-30T11:25:10.224Z,29.55
2022-08-30T11:27:51.465Z,29.86
2022-08-30T11:30:51.343Z,29.70
2022-08-30T11:33:47.719Z,29.55
2022-08-30T11:36:49.298Z,29.36
2022-08-30T11:39:51.088Z,29.27
2022-08-30T11:45:45.873Z,29.18
2022-08-30T11:48:53.932Z,29.14
2022-08-30T11:55:02.646Z,28.96
2022-08-30T11:57:33.260Z,28.98
2022-08-30T12:00:10.329Z,28.96
2022-08-30T12:02:47.333Z,29.11
2022-08-30T12:06:01.141Z,29.23
2022-08-30T12:08:59.607Z,29.32
2022-08-30T12:12:04.619Z,29.41
2022-08-30T12:14:49.010Z,29.31
2022-08-30T12:17:43.399Z,29.31
2022-08-30T12:20:29.111Z,29.25
2022-08-30T12:22:57.994Z,29.29
2022-08-30T12:25:32.860Z,29.29
2022-08-30T12:28:16.974Z,29.32
2022-08-30T12:30:46.727Z,29.26
2022-08-30T12:33:18.183Z,29.23
2022-08-30T12:35:48.605Z,29.25
2022-08-30T12:38:27.462Z,29.30
2022-08-30T12:41:01.505Z,29.22
2022-08-30T12:43:33.161Z,29.14
2022-08-30T12:46:11.666Z,29.10
2022-08-30T12:48:41.147Z,29.13
2022-08-30T12:51:37.896Z,29.04
2022-08-30T12:54:09.786Z,29.06
2022-08-30T12:57:19.072Z,29.05
2022-08-30T12:59:58.517Z,29.18
2022-08-30T13:02:29.244Z,29.28
2022-08-30T13:04:57.843Z,29.28
2022-08-30T13:07:30.492Z,29.32
2022-08-30T13:10:07.304Z,29.36
2022-08-30T13:12:38.336Z,29.57
2022-08-30T13:15:21.829Z,29.82
2022-08-30T13:17:49.779Z,29.97
2022-08-30T13:20:26.038Z,30.09
2022-08-30T13:23:07.155Z,30.13
2022-08-30T13:25:35.629Z,30.14
2022-08-30T13:28:05.223Z,30.00
2022-08-30T13:30:34.189Z,29.92
2022-08-30T13:33:02.493Z,29.82
2022-08-30T13:35:31.243Z,29.97
2022-08-30T13:38:01.405Z,30.16
2022-08-30T13:40:30.811Z,30.22
2022-08-30T13:42:58.954Z,30.33
2022-08-30T13:45:42.899Z,30.56
2022-08-30T13:48:11.904Z,30.67
2022-08-30T13:50:39.909Z,30.73
2022-08-30T13:53:09.222Z,30.90
2022-08-30T13:55:39.020Z,30.95
2022-08-30T13:58:08.617Z,31.08
2022-08-30T14:00:38.102Z,30.76
2022-08-30T14:03:06.427Z,30.73
2022-08-30T14:06:04.935Z,30.61
2022-08-30T14:08:45.581Z,30.48
2022-08-30T14:11:19.433Z,30.17
2022-08-30T14:16:45.145Z,29.78
2022-08-30T14:19:15.680Z,29.62
2022-08-30T14:21:49.114Z,29.68
2022-08-30T14:24:30.409Z,29.52
2022-08-30T14:26:59.871Z,29.37
2022-08-30T14:29:30.139Z,29.29
2022-08-30T14:32:00.322Z,29.41
2022-08-30T14:34:34.437Z,29.57
2022-08-30T14:37:07.080Z,29.55
2022-08-30T14:39:39.121Z,29.50
2022-08-30T14:44:56.479Z,29.52
2022-08-30T14:47:29.560Z,29.51
2022-08-30T14:50:01.047Z,29.75
2022-08-30T14:52:29.634Z,29.93
2022-08-30T14:55:05.159Z,30.10
2022-08-30T14:57:38.702Z,30.19
2022-08-30T15:00:17.539Z,30.23
2022-08-30T15:02:48.225Z,30.21
2022-08-30T15:05:18.966Z,30.18
2022-08-30T15:07:53.127Z,30.07
2022-08-30T15:10:25.184Z,30.07
2022-08-30T15:13:04.902Z,29.86
2022-08-30T15:15:42.400Z,29.82
2022-08-30T15:18:10.499Z,29.68
2022-08-30T15:20:40.823Z,29.77
2022-08-30T15:23:08.989Z,29.64
2022-08-30T15:25:37.400Z,29.66
2022-08-30T15:28:11.516Z,29.63
2022-08-30T15:30:41.486Z,29.70
2022-08-30T15:33:10.878Z,29.68
2022-08-30T15:35:42.005Z,29.65
2022-08-30T15:38:10.459Z,29.83
2022-08-30T15:40:40.622Z,29.91
2022-08-30T15:43:08.758Z,30.00
2022-08-30T15:45:38.684Z,29.83
2022-08-30T15:48:06.690Z,29.86
2022-08-30T15:50:35.821Z,29.73
2022-08-30T15:53:05.097Z,29.72
2022-08-30T15:55:35.440Z,29.80
2022-08-30T15:58:03.976Z,29.75
2022-08-30T16:00:33.138Z,29.71
2022-08-30T16:03:02.869Z,29.72
2022-08-30T16:05:31.199Z,29.68
2022-08-30T16:07:59.563Z,29.53
2022-08-30T16:10:27.428Z,29.47
2022-08-30T16:13:02.948Z,29.39
2022-08-30T16:15:32.065Z,29.21
2022-08-30T16:18:00.041Z,29.11
2022-08-30T16:20:29.472Z,29.05
2022-08-30T16:22:57.465Z,28.93
2022-08-30T16:25:25.716Z,28.93
2022-08-30T16:28:09.516Z,28.96
2022-08-30T16:30:37.550Z,28.91
2022-08-30T16:33:06.039Z,28.82
2022-08-30T16:35:35.454Z,28.71
2022-08-30T16:38:03.461Z,28.68
2022-08-30T16:40:31.712Z,28.66
2022-08-30T16:42:59.718Z,28.60
2022-08-30T16:45:31.332Z,28.56
2022-08-30T16:48:02.307Z,28.44
2022-08-30T16:50:30.166Z,28.37
2022-08-30T16:53:00.241Z,28.31
2022-08-30T16:55:28.990Z,28.23
2022-08-30T16:57:56.952Z,28.09
2022-08-30T17:00:25.098Z,28.02
2022-08-30T17:02:56.390Z,27.91
2022-08-30T17:05:24.466Z,27.77
2022-08-30T17:07:52.414Z,27.70
2022-08-30T17:10:23.336Z,27.60
2022-08-30T17:12:54.219Z,27.46
2022-08-30T17:15:22.167Z,27.39
2022-08-30T17:17:50.317Z,27.34
2022-08-30T17:20:21.097Z,27.25
2022-08-30T17:22:49.142Z,27.16
2022-08-30T17:25:17.043Z,27.13
2022-08-30T17:27:46.356Z,27.00
2022-08-30T17:30:14.458Z,26.97
2022-08-30T17:32:42.383Z,26.86
2022-08-30T17:35:10.564Z,26.79
2022-08-30T17:37:40.342Z,26.71
2022-08-30T17:40:14.331Z,26.69
2022-08-30T17:42:44.039Z,26.59
2022-08-30T17:45:16.178Z,26.50
2022-08-30T17:47:45.028Z,26.42
2022-08-30T17:50:14.132Z,26.34
2022-08-30T17:52:42.317Z,26.27
2022-08-30T17:55:11.556Z,26.24
2022-08-30T17:57:44.354Z,26.18
2022-08-30T18:00:15.653Z,26.10
2022-08-30T18:02:44.050Z,26.04
2022-08-30T18:05:12.156Z,25.93
2022-08-30T18:07:40.722Z,25.83
2022-08-30T18:10:09.467Z,25.79
2022-08-30T18:12:38.196Z,25.76
2022-08-30T18:15:12.588Z,25.64
2022-08-30T18:17:47.664Z,25.59
2022-08-30T18:20:16.146Z,25.53
2022-08-30T18:22:44.061Z,25.48
2022-08-30T18:25:14.901Z,25.43
2022-08-30T18:27:45.815Z,25.42
2022-08-30T18:30:31.161Z,25.40
2022-08-30T18:33:02.983Z,25.37
2022-08-30T18:35:34.574Z,25.29
2022-08-30T18:38:04.724Z,25.27
2022-08-30T18:40:32.691Z,25.17
2022-08-30T18:43:07.935Z,25.19
2022-08-30T18:45:36.253Z,25.10
2022-08-30T18:48:06.586Z,25.08
2022-08-30T18:50:34.718Z,25.04
2022-08-30T18:53:03.072Z,24.96
2022-08-30T18:55:31.020Z,24.92
2022-08-30T18:57:59.126Z,24.84
2022-08-30T19:00:29.968Z,24.78
2022-08-30T19:02:57.799Z,24.74
2022-08-30T19:05:27.857Z,24.68
2022-08-30T19:07:56.358Z,24.64
2022-08-30T19:10:26.799Z,24.56
2022-08-30T19:12:55.990Z,24.52
2022-08-30T19:15:24.142Z,24.47
2022-08-30T19:17:52.031Z,24.40
2022-08-30T19:20:24.748Z,24.35
2022-08-30T19:23:09.310Z,24.32
2022-08-30T19:25:38.034Z,24.30
2022-08-30T19:28:06.612Z,24.31
2022-08-30T19:30:41.053Z,24.30
2022-08-30T19:33:13.656Z,24.24
2022-08-30T19:35:51.432Z,24.22
2022-08-30T19:38:21.220Z,24.26
2022-08-30T19:40:53.987Z,24.26
2022-08-30T19:43:22.694Z,24.22
2022-08-30T19:45:54.783Z,24.09
2022-08-30T19:48:23.236Z,24.10
2022-08-30T19:50:57.435Z,24.02
2022-08-30T19:53:27.768Z,23.96
2022-08-30T19:55:55.583Z,23.96
2022-08-30T19:58:23.591Z,23.90
2022-08-30T20:03:39.931Z,23.98
2022-08-30T20:06:08.961Z,23.98
2022-08-30T20:08:38.697Z,23.98
2022-08-30T20:11:07.659Z,24.01
2022-08-30T20:13:38.980Z,24.04
2022-08-30T20:16:07.553Z,24.05
2022-08-30T20:18:37.184Z,23.99
2022-08-30T20:21:05.479Z,24.00
2022-08-30T20:23:43.254Z,23.96
2022-08-30T20:26:12.321Z,23.89
2022-08-30T20:28:40.861Z,23.92
2022-08-30T20:31:11.215Z,23.85
2022-08-30T20:33:41.097Z,23.80
2022-08-30T20:36:11.320Z,23.83
2022-08-30T20:38:40.166Z,23.80
2022-08-30T20:41:13.053Z,23.76
2022-08-30T20:43:41.266Z,23.71
2022-08-30T20:46:10.681Z,23.71
2022-08-30T20:48:39.326Z,23.64
2022-08-30T20:51:09.441Z,23.58
2022-08-30T20:53:37.446Z,23.55
2022-08-30T20:56:05.730Z,23.52
2022-08-30T20:58:35.006Z,23.48
2022-08-30T21:01:02.997Z,23.45
2022-08-30T21:03:32.703Z,23.47
2022-08-30T21:06:00.884Z,23.45
2022-08-30T21:08:29.110Z,23.40
2022-08-30T21:10:56.987Z,23.38
2022-08-30T21:13:25.319Z,23.35
2022-08-30T21:16:00.300Z,23.32
2022-08-30T21:18:33.041Z,23.32
2022-08-30T21:21:01.328Z,23.33
2022-08-30T21:23:29.406Z,23.27
2022-08-30T21:26:01.257Z,23.25
2022-08-30T21:28:29.325Z,23.25
2022-08-30T21:31:07.004Z,23.25
2022-08-30T21:33:35.250Z,23.25
2022-08-30T21:36:20.718Z,23.25
2022-08-30T21:38:48.890Z,23.23
2022-08-30T21:41:17.440Z,23.25
2022-08-30T21:43:47.444Z,23.23
2022-08-30T21:46:17.920Z,23.21
2022-08-30T21:48:46.697Z,23.20
2022-08-30T21:51:14.848Z,23.19
2022-08-30T21:53:42.849Z,23.22
2022-08-30T21:56:13.517Z,23.17
2022-08-30T21:58:45.498Z,23.16
2022-08-30T22:01:17.508Z,23.17
2022-08-30T22:03:46.778Z,23.19
2022-08-30T22:06:15.698Z,23.16
2022-08-30T22:08:45.683Z,23.15
2022-08-30T22:11:16.861Z,23.11
2022-08-30T22:13:46.370Z,23.09
2022-08-30T22:16:18.180Z,23.08
2022-08-30T22:18:46.570Z,23.02
2022-08-30T22:21:16.418Z,23.00
2022-08-30T22:23:45.079Z,22.97
2022-08-30T22:26:14.261Z,22.94
2022-08-30T22:28:42.378Z,22.90
2022-08-30T22:31:12.885Z,22.87
2022-08-30T22:33:43.056Z,22.86
2022-08-30T22:36:13.868Z,22.82
2022-08-30T22:38:42.536Z,22.78
2022-08-30T22:41:11.982Z,22.78
2022-08-30T22:43:40.325Z,22.77
2022-08-30T22:46:08.472Z,22.77
2022-08-30T22:48:37.358Z,22.75
2022-08-30T22:51:07.109Z,22.79
2022-08-30T22:53:35.479Z,22.77
2022-08-30T22:56:09.642Z,22.78
2022-08-30T22:58:37.923Z,22.70
2022-08-30T23:01:07.013Z,22.71
2022-08-30T23:03:35.628Z,22.75
2022-08-30T23:06:03.960Z,22.73
2022-08-30T23:08:33.262Z,22.74
2022-08-30T23:11:01.266Z,22.66
2022-08-30T23:13:29.151Z,22.60
2022-08-30T23:15:57.400Z,22.59
2022-08-30T23:18:25.320Z,22.52
2022-08-30T23:20:53.582Z,22.55
2022-08-30T23:23:38.743Z,22.49
2022-08-30T23:26:25.773Z,22.41
2022-08-30T23:29:11.046Z,22.39
2022-08-30T23:31:56.387Z,22.35
2022-08-30T23:34:41.858Z,22.37
2022-08-30T23:37:27.091Z,22.28
2022-08-30T23:40:12.387Z,22.25
2022-08-30T23:43:00.967Z,22.25
2022-08-30T23:45:46.651Z,22.22
2022-08-30T23:48:31.852Z,22.20
2022-08-30T23:51:21.822Z,22.21
2022-08-30T23:54:07.945Z,22.16
2022-08-30T23:56:53.370Z,22.15
2022-08-30T23:59:40.158Z,22.08
